GGD weather

Gregory Downs Airport
Queensland, Australia

Public forecast

Using degrees Celsius for public forecast. Weather courtesy of forecast.io.

METAR (pilot weather report)

Closest report is Normanton Airport, 119.0 nm (220.5 km) ENE. Retrieved 2019/04/24 09:00 UTC (50 minutes ago):

YNTN 240900Z AUTO 18007KT 9999 // NCD 31/13 Q1010

TAF (pilot weather forecast)

Closest forecast is Tennant Creek Airport, 292.8 nm (542.2 km) WSW. Retrieved 2019/04/24 08:03 UTC (2 hours ago):

TAF TAF YTNK 240622Z 2408/2420 13012KT CAVOK